HOURLY OBS INDEX

097

West Coast Mountain Region

CAPE SORELL

Site: 097000
Alt: 19.3m
34km WSW of QUEENSTOWN


  Time     Wind        Temp  DP   Baro     Rain since   Rain past  Vis(m), Cloud(base in m), Weather
  local        km/h                         9am  last   hr   10m    
Fri 23:00    S 32/ 41   9.1  7.4  1002.4    2.2   0.6   1.4   0.4   ----- 
Fri 23:30    S 24/ 32   8.5  7.0  1002.8    4.6   2.4   3.0   1.0   ----- 
Fri 23:50    S 30/ 52   8.8  7.4  1002.6    5.0   0.4  ----   0.2   ----- 
Sat 00:00    S 46/ 59   9.0  7.8  1002.6    5.2   0.2   3.0   0.2   ----- 
Sat 00:30    S 52/ 63   8.7  7.3  1002.8    5.2   0.0   0.6   0.0   ----- 
Sat 01:00    S 56/ 65   8.6  7.1  1003.0    5.2   0.0   0.0   0.0   ----- 
Sat 01:30    S 52/ 70   8.5  7.0  1003.2    5.4   0.2   0.2   0.0   ----- 
Sat 02:00    S 50/ 61   8.3  6.6  1003.6    5.4   0.0   0.2   0.0   ----- 
Sat 02:30  SSW 52/ 63   8.4  6.4  1003.6    5.4   0.0   0.0   0.0   ----- 
Sat 03:00  SSW 50/ 61   8.8  6.3  1003.7    5.4   0.0   0.0   0.0   ----- 
Sat 03:30  SSW 48/ 61   8.7  5.8  1003.9    5.4   0.0   0.0   0.0   ----- 
Sat 04:00  SSW 54/ 69   8.7  5.3  1004.0    5.4   0.0   0.0   0.0   ----- 
Sat 04:30  SSW 54/ 59   8.5  4.7  1004.7    5.4   0.0   0.0   0.0   ----- 

LOW ROCKY POINT

Site: 097080
Alt: 34.0m
51km WSW of STRATHGORDON VILLAGE


  Time     Wind        Temp  DP   Baro     Rain since   Rain past  Vis(m), Cloud(base in m), Weather
  local        km/h                         9am  last   hr   10m    
Fri 23:00    S 45/ 58   8.3  8.2  1002.6   ----  ----  ----  ----   ----- 
Fri 23:30    S 45/ 58   8.2  7.9  1002.8   ----  ----  ----  ----   ----- 
Fri 23:40    S 45/ 63   7.9  7.6  1002.9   ----  ----  ----  ----   ----- 
Sat 00:00    S 39/ 54   8.0  7.7  1003.2   ----  ----  ----  ----   ----- 
Sat 00:30    S 43/ 56   7.8  7.2  1003.5   ----  ----  ----  ----   ----- 
Sat 01:00    S 39/ 50   7.7  6.8  1003.7   ----  ----  ----  ----   ----- 
Sat 01:30    S 39/ 56   7.6  6.4  1004.0   ----  ----  ----  ----   ----- 
Sat 02:00    S 35/ 46   7.7  5.8  1004.1   ----  ----  ----  ----   ----- 
Sat 02:30  SSW 33/ 46   7.7  5.5  1004.2   ----  ----  ----  ----   ----- 
Sat 03:00    S 32/ 46   7.7  5.2  1004.3   ----  ----  ----  ----   ----- 
Sat 03:30  SSW 33/ 45   7.7  4.5  1004.4   ----  ----  ----  ----   ----- 
Sat 04:00  SSW 30/ 43   7.5  3.9  1004.8   ----  ----  ----  ----   ----- 
Sat 04:30   SW 30/ 37   7.4  3.1  1005.1   ----   0.0   0.0  ----   ----- 

MOUNT READ

Site: 097085
Alt: 1119.5m
26km N of QUEENSTOWN


  Time     Wind        Temp  DP   Baro     Rain since   Rain past  Vis(m), Cloud(base in m), Weather
  local        km/h                         9am  last   hr   10m    
Fri 23:00    S 33/ 37   1.2----   999.4    1.8   0.0   0.0   0.0   ----- 
Fri 23:30    S 39/ 46   1.2----   999.4    2.0   0.2   0.2   0.2   ----- 
Sat 00:00  SSW 37/ 46   1.1----   999.6    2.0   0.0   0.2   0.0   ----- 
Sat 00:30  SSW 41/ 50   0.7----   999.6    2.2   0.2   0.2   0.0   ----- 
Sat 01:00    S 46/ 58   0.8----   999.4    2.2   0.0   0.2   0.0   ----- 
Sat 01:30    S 50/ 63   0.9----   999.2    2.4   0.2   0.2   0.0   ----- 
Sat 01:58    S 52/ 72   0.8----   999.3    3.0   0.6  ----   0.4   ----- 
Sat 02:00    S 52/ 72   0.9----   999.4    3.0   0.0   0.8   0.4   ----- 
Sat 02:30    S 56/ 70   0.4----   999.3    3.8   0.8   1.4   0.4   ----- 
Sat 02:43    S 58/ 76   0.2----   999.3    4.0   0.2  ----   0.2   ----- 
Sat 03:00    S 61/ 78   0.1----   999.3    4.4   0.4   1.4   0.2   ----- 
Sat 03:03    S 59/ 78   0.1----   999.5    4.4   0.0  ----   0.0   ----- 
Sat 03:30  SSW 54/ 70  -0.2----   999.5    4.8   0.4   1.0   0.0   ----- 
Sat 04:00  SSW 54/ 67  -0.8----   999.5    4.8   0.0   0.4   0.0   ----- 
Sat 04:30  SSW 39/ 54  -0.8----  1000.4    4.8   0.0   0.0   0.0   ----- 

SCOTTS PEAK DAM

Site: 097083
Alt: 408.0m
36km SSE of STRATHGORDON VILLAGE


  Time     Wind        Temp  DP   Baro     Rain since   Rain past  Vis(m), Cloud(base in m), Weather
  local        km/h                         9am  last   hr   10m    
Fri 23:00    W  9/ 13   5.5  5.5  ------    1.8   0.0   0.0   0.0   ----- 
Fri 23:30  WNW 15/ 20   5.4  5.4  ------    1.8   0.0   0.0   0.0   ----- 
Sat 00:00    W 15/ 20   5.6  5.6  ------    1.8   0.0   0.0   0.0   ----- 
Sat 00:30   SW 19/ 24   5.8  5.8  ------    1.8   0.0   0.0   0.0   ----- 
Sat 01:00   SW 19/ 26   5.4  5.4  ------    2.4   0.6   0.6   0.6   ----- 
Sat 01:30  SSW 13/ 20   5.1  5.1  ------    2.6   0.2   0.8   0.2   ----- 
Sat 01:56   SW 35/ 43   4.9  4.9  ------    2.6   0.0  ----   0.0   ----- 
Sat 02:00   SW 35/ 43   4.9  4.9  ------    2.6   0.0   0.2   0.0   ----- 
Sat 02:30   SW 30/ 37   4.6  4.6  ------    2.6   0.0   0.0   0.0   ----- 
Sat 03:00  WSW 26/ 39   4.1  4.1  ------    2.6   0.0   0.0   0.0   ----- 
Sat 03:30   SW 30/ 43   3.9  3.9  ------    3.0   0.4   0.4   0.0   ----- 
Sat 03:43  SSW 30/ 50   3.8  3.8  ------    3.0   0.0  ----   0.0   ----- 
Sat 04:00   SW 33/ 50   3.4  3.4  ------    3.2   0.2   0.6   0.0   ----- 
Sat 04:30  WSW 37/ 48   3.2  3.2  ------    3.4   0.0   0.0   0.2   ----- 

STRAHAN AERODROME

Site: 097072
Alt: 21.0m
23km WSW of QUEENSTOWN


  Time     Wind        Temp  DP   Baro     Rain since   Rain past  Vis(m), Cloud(base in m), Weather
  local        km/h                         9am  last   hr   10m    
Fri 23:00  SSW 13/ 19   7.4  7.0  1002.7    0.2   0.0   0.0   0.0   10000|SC 690 BR1260 
Fri 23:30    S 19/ 30   8.3  7.7  1003.0    0.2   0.0   0.0   0.0   10000|SC 600 BR 870 OC1260 
Sat 00:00  SSE 15/ 24   8.0  7.6  1003.3    0.8   0.6   0.6   0.2   10000|SC 480 OC 930 OC1200 
Sat 00:15    S 17/ 26   8.2  7.8  1003.4    1.2   0.4  ----   0.4    8000|BR 360 OC 990 OC1200 
Sat 00:30  SSW 24/ 37   8.1  7.7  1003.5    1.4   0.2   1.2   0.2    9000|BR 360 BR 480 OC 750 
Sat 00:47    S 28/ 46   7.9  7.5  1003.7    1.8   0.4  ----   0.2   10000|SC 360 BR 480 BR 690 
Sat 01:00    S 28/ 41   7.8  7.4  1003.8    1.8   0.0   1.0   0.0   10000|BR 420 BR 630 OC 870 
Sat 01:15    S 30/ 39   7.7  7.1  1004.0    1.8   0.0  ----   0.0   10000|SC 420 BR 690 BR 840 
Sat 01:30    S 30/ 43   7.8  7.2  1004.0    1.8   0.0   0.4   0.0   10000|SC 690 SC 780 OC 990 
Sat 02:00    S 32/ 41   7.3  6.9  1004.3    1.8   0.0   0.0   0.0   10000|SC 330 BR 660 BR1050 
Sat 02:17    S 32/ 46   7.1  6.7  1004.5    1.8   0.0  ----   0.0    8000|BR 330 BR 600 BR1170 
Sat 02:29    S 28/ 39   7.1  6.7  1004.6    1.8   0.0  ----   0.0   10000|SC 330 BR1140 BR1290 
Sat 02:30    S 28/ 39   7.2  6.8  1004.6    1.8   0.0   0.0   0.0   10000|SC 330 SC1050 BR1230 
Sat 03:00    S 19/ 24   7.3  6.7  1004.7    1.8   0.0   0.0   0.0   10000|BR 930 OC1140 
Sat 03:30    S 24/ 33   7.1  5.6  1004.9    1.8   0.0   0.0   0.0   10000|SC 840 OC1110 
Sat 04:00  SSW 24/ 35   7.1  5.9  1005.2    1.8   0.0   0.0   0.0   10000|SC 840 SC 960 BR1140 
Sat 04:30  SSW 22/ 32   7.2  4.5  1005.7    1.8   0.0   0.0   0.0   10000|BR1020 OC1170 OC1380 

WARRA

Site: 097024
Alt: 495.0m
28km W of HUONVILLE


  Time     Wind        Temp  DP   Baro     Rain since   Rain past  Vis(m), Cloud(base in m), Weather
  local        km/h                         9am  last   hr   10m    
Fri 23:00  WSW  9/ 15   4.7  4.6  ------    2.4   0.0   0.0   0.0   ----- 
Fri 23:30   SW  9/ 13   4.8  4.7  ------    2.4   0.0   0.0   0.0   ----- 
Sat 00:00  WSW 13/ 20   5.0  4.4  ------    2.4   0.0   0.0   0.0   ----- 
Sat 00:30  WSW 15/ 26   5.0  4.3  ------    2.4   0.0   0.0   0.0   ----- 
Sat 01:00   SW 13/ 20   5.1  4.4  ------    2.4   0.0   0.0   0.0   ----- 
Sat 01:30   SW  7/ 13   4.9  4.3  ------    2.4   0.0   0.0   0.0   ----- 
Sat 02:00   SW 15/ 24   4.7  4.6  ------    2.4   0.0   0.0   0.0   ----- 
Sat 02:30  SSW 11/ 20   4.6  4.5  ------    2.6   0.2   0.2   0.0   ----- 
Sat 03:00   SW 15/ 24   4.3  4.2  ------    2.8   0.2   0.4   0.0   ----- 
Sat 03:30   SW 13/ 22   4.0  3.9  ------    2.8   0.0   0.2   0.0   ----- 
Sat 04:00  WSW 20/ 32   3.7  3.6  ------    2.8   0.0   0.0   0.0   ----- 
Sat 04:30   SW 19/ 33   3.3  3.2  ------    2.8   0.0   0.0   0.0   -----